sensor_id;sensor_type;location;lat;lon;timestamp;temperature;humidity
15713;DHT22;7957;51.608;6.916;2023-05-07T00:01:35;15.70;1.00
15713;DHT22;7957;51.608;6.916;2023-05-07T00:04:02;15.70;1.00
15713;DHT22;7957;51.608;6.916;2023-05-07T00:06:29;15.70;1.00
15713;DHT22;7957;51.608;6.916;2023-05-07T00:08:58;15.60;1.00
15713;DHT22;7957;51.608;6.916;2023-05-07T00:11:26;15.60;1.00
15713;DHT22;7957;51.608;6.916;2023-05-07T00:13:53;15.70;1.00
15713;DHT22;7957;51.608;6.916;2023-05-07T00:16:20;15.60;1.00
15713;DHT22;7957;51.608;6.916;2023-05-07T00:18:47;15.60;1.00
15713;DHT22;7957;51.608;6.916;2023-05-07T00:21:14;15.60;1.00
15713;DHT22;7957;51.608;6.916;2023-05-07T00:23:40;15.60;1.00
15713;DHT22;7957;51.608;6.916;2023-05-07T00:26:09;15.60;1.00
15713;DHT22;7957;51.608;6.916;2023-05-07T00:28:36;15.60;42.50
15713;DHT22;7957;51.608;6.916;2023-05-07T00:31:02;15.60;99.40
15713;DHT22;7957;51.608;6.916;2023-05-07T00:33:29;15.60;99.90
15713;DHT22;7957;51.608;6.916;2023-05-07T00:35:56;15.60;99.90
15713;DHT22;7957;51.608;6.916;2023-05-07T00:38:23;15.60;99.90
15713;DHT22;7957;51.608;6.916;2023-05-07T00:40:50;15.50;99.90
15713;DHT22;7957;51.608;6.916;2023-05-07T00:43:18;15.50;99.90
15713;DHT22;7957;51.608;6.916;2023-05-07T00:45:45;15.60;99.90
15713;DHT22;7957;51.608;6.916;2023-05-07T00:48:12;15.50;99.90
15713;DHT22;7957;51.608;6.916;2023-05-07T00:50:40;15.50;99.90
15713;DHT22;7957;51.608;6.916;2023-05-07T00:53:06;15.50;99.90
15713;DHT22;7957;51.608;6.916;2023-05-07T00:55:35;15.50;1.00
15713;DHT22;7957;51.608;6.916;2023-05-07T00:58:02;15.50;1.00
15713;DHT22;7957;51.608;6.916;2023-05-07T01:00:31;15.50;1.00
15713;DHT22;7957;51.608;6.916;2023-05-07T01:02:58;15.50;1.00
15713;DHT22;7957;51.608;6.916;2023-05-07T01:05:25;15.50;1.00
15713;DHT22;7957;51.608;6.916;2023-05-07T01:07:54;15.50;1.00
15713;DHT22;7957;51.608;6.916;2023-05-07T01:10:22;15.40;1.00
15713;DHT22;7957;51.608;6.916;2023-05-07T01:12:50;15.40;1.00
15713;DHT22;7957;51.608;6.916;2023-05-07T01:15:17;15.40;1.00
15713;DHT22;7957;51.608;6.916;2023-05-07T01:17:45;15.40;1.00
15713;DHT22;7957;51.608;6.916;2023-05-07T01:20:12;15.40;1.00
15713;DHT22;7957;51.608;6.916;2023-05-07T01:22:41;15.40;1.00
15713;DHT22;7957;51.608;6.916;2023-05-07T01:25:09;15.40;24.60
15713;DHT22;7957;51.608;6.916;2023-05-07T01:27:36;15.30;41.00
15713;DHT22;7957;51.608;6.916;2023-05-07T01:30:04;15.30;66.90
15713;DHT22;7957;51.608;6.916;2023-05-07T01:32:35;15.30;94.10
15713;DHT22;7957;51.608;6.916;2023-05-07T01:35:03;15.30;99.90
15713;DHT22;7957;51.608;6.916;2023-05-07T01:37:32;15.30;99.90
15713;DHT22;7957;51.608;6.916;2023-05-07T01:40:01;15.30;99.90
15713;DHT22;7957;51.608;6.916;2023-05-07T01:42:29;15.30;99.90
15713;DHT22;7957;51.608;6.916;2023-05-07T01:44:56;15.30;99.90
15713;DHT22;7957;51.608;6.916;2023-05-07T01:47:23;15.30;99.90
15713;DHT22;7957;51.608;6.916;2023-05-07T01:49:51;15.30;99.90
15713;DHT22;7957;51.608;6.916;2023-05-07T01:52:18;15.30;99.90
15713;DHT22;7957;51.608;6.916;2023-05-07T01:54:45;15.30;99.90
15713;DHT22;7957;51.608;6.916;2023-05-07T01:57:13;15.30;99.90
15713;DHT22;7957;51.608;6.916;2023-05-07T01:59:40;15.30;99.90
15713;DHT22;7957;51.608;6.916;2023-05-07T02:02:07;15.30;99.90
15713;DHT22;7957;51.608;6.916;2023-05-07T02:04:34;15.20;99.90
15713;DHT22;7957;51.608;6.916;2023-05-07T02:07:02;15.20;99.90
15713;DHT22;7957;51.608;6.916;2023-05-07T02:09:28;15.20;99.90
15713;DHT22;7957;51.608;6.916;2023-05-07T02:11:55;15.20;99.90
15713;DHT22;7957;51.608;6.916;2023-05-07T02:14:23;15.20;99.90
15713;DHT22;7957;51.608;6.916;2023-05-07T02:16:51;15.20;99.90
15713;DHT22;7957;51.608;6.916;2023-05-07T02:19:18;15.20;99.90
15713;DHT22;7957;51.608;6.916;2023-05-07T02:21:46;15.20;99.90
15713;DHT22;7957;51.608;6.916;2023-05-07T02:24:13;15.20;99.90
15713;DHT22;7957;51.608;6.916;2023-05-07T02:26:40;15.20;99.90
15713;DHT22;7957;51.608;6.916;2023-05-07T02:29:07;15.20;99.90
15713;DHT22;7957;51.608;6.916;2023-05-07T02:31:36;15.20;99.90
15713;DHT22;7957;51.608;6.916;2023-05-07T02:34:03;15.20;99.90
15713;DHT22;7957;51.608;6.916;2023-05-07T02:36:29;15.20;99.90
15713;DHT22;7957;51.608;6.916;2023-05-07T02:38:56;15.10;99.90
15713;DHT22;7957;51.608;6.916;2023-05-07T02:41:23;15.20;99.90
15713;DHT22;7957;51.608;6.916;2023-05-07T02:43:50;15.20;99.90
15713;DHT22;7957;51.608;6.916;2023-05-07T02:46:17;15.10;99.90
15713;DHT22;7957;51.608;6.916;2023-05-07T02:48:45;15.20;99.90
15713;DHT22;7957;51.608;6.916;2023-05-07T02:51:12;15.10;99.90
15713;DHT22;7957;51.608;6.916;2023-05-07T02:53:40;15.10;99.90
15713;DHT22;7957;51.608;6.916;2023-05-07T02:56:07;15.10;99.90
15713;DHT22;7957;51.608;6.916;2023-05-07T02:58:34;15.10;99.90
15713;DHT22;7957;51.608;6.916;2023-05-07T03:01:00;15.10;99.90
15713;DHT22;7957;51.608;6.916;2023-05-07T03:03:27;15.10;99.90
15713;DHT22;7957;51.608;6.916;2023-05-07T03:05:56;15.10;99.90
15713;DHT22;7957;51.608;6.916;2023-05-07T03:08:23;15.00;99.90
15713;DHT22;7957;51.608;6.916;2023-05-07T03:10:50;15.10;99.90
15713;DHT22;7957;51.608;6.916;2023-05-07T03:13:17;15.00;99.90
15713;DHT22;7957;51.608;6.916;2023-05-07T03:15:43;15.00;99.90
15713;DHT22;7957;51.608;6.916;2023-05-07T03:18:11;15.00;99.90
15713;DHT22;7957;51.608;6.916;2023-05-07T03:20:37;15.00;99.90
15713;DHT22;7957;51.608;6.916;2023-05-07T03:23:06;15.00;99.90
15713;DHT22;7957;51.608;6.916;2023-05-07T03:25:33;15.00;99.90
15713;DHT22;7957;51.608;6.916;2023-05-07T03:28:00;15.00;99.90
15713;DHT22;7957;51.608;6.916;2023-05-07T03:30:27;15.00;99.90
15713;DHT22;7957;51.608;6.916;2023-05-07T03:32:54;14.90;99.90
15713;DHT22;7957;51.608;6.916;2023-05-07T03:35:21;15.00;99.90
15713;DHT22;7957;51.608;6.916;2023-05-07T03:37:48;14.90;99.90
15713;DHT22;7957;51.608;6.916;2023-05-07T03:40:16;14.90;99.90
15713;DHT22;7957;51.608;6.916;2023-05-07T03:42:43;14.90;99.90
15713;DHT22;7957;51.608;6.916;2023-05-07T03:45:10;14.90;99.90
15713;DHT22;7957;51.608;6.916;2023-05-07T03:47:37;14.90;99.90
15713;DHT22;7957;51.608;6.916;2023-05-07T03:50:05;14.90;99.90
15713;DHT22;7957;51.608;6.916;2023-05-07T03:52:32;14.90;99.90
15713;DHT22;7957;51.608;6.916;2023-05-07T03:54:59;14.90;99.90
15713;DHT22;7957;51.608;6.916;2023-05-07T03:57:27;14.90;99.90
15713;DHT22;7957;51.608;6.916;2023-05-07T03:59:54;14.80;99.90
15713;DHT22;7957;51.608;6.916;2023-05-07T04:02:21;14.80;99.90
15713;DHT22;7957;51.608;6.916;2023-05-07T04:04:48;14.80;99.90
15713;DHT22;7957;51.608;6.916;2023-05-07T04:07:15;14.80;99.90
15713;DHT22;7957;51.608;6.916;2023-05-07T04:09:42;14.80;99.90
15713;DHT22;7957;51.608;6.916;2023-05-07T04:12:09;14.80;99.90
15713;DHT22;7957;51.608;6.916;2023-05-07T04:14:37;14.80;99.90
15713;DHT22;7957;51.608;6.916;2023-05-07T04:17:04;14.80;99.90
15713;DHT22;7957;51.608;6.916;2023-05-07T04:19:33;14.80;99.90
15713;DHT22;7957;51.608;6.916;2023-05-07T04:22:00;14.80;99.90
15713;DHT22;7957;51.608;6.916;2023-05-07T04:24:30;14.80;99.90
15713;DHT22;7957;51.608;6.916;2023-05-07T04:26:58;14.80;99.90
15713;DHT22;7957;51.608;6.916;2023-05-07T04:29:25;14.80;99.90
15713;DHT22;7957;51.608;6.916;2023-05-07T04:31:54;14.80;99.90
15713;DHT22;7957;51.608;6.916;2023-05-07T04:34:21;14.70;99.90
15713;DHT22;7957;51.608;6.916;2023-05-07T04:36:48;14.80;99.90
15713;DHT22;7957;51.608;6.916;2023-05-07T04:39:15;14.70;99.90
15713;DHT22;7957;51.608;6.916;2023-05-07T04:41:42;14.70;99.90
15713;DHT22;7957;51.608;6.916;2023-05-07T04:44:09;14.70;99.90
15713;DHT22;7957;51.608;6.916;2023-05-07T04:46:36;14.80;99.90
15713;DHT22;7957;51.608;6.916;2023-05-07T04:49:04;14.80;99.90
15713;DHT22;7957;51.608;6.916;2023-05-07T04:51:31;14.70;99.90
15713;DHT22;7957;51.608;6.916;2023-05-07T04:53:58;14.70;99.90
15713;DHT22;7957;51.608;6.916;2023-05-07T04:56:27;14.70;99.90
15713;DHT22;7957;51.608;6.916;2023-05-07T04:58:54;14.70;99.90
15713;DHT22;7957;51.608;6.916;2023-05-07T05:01:21;14.80;99.90
15713;DHT22;7957;51.608;6.916;2023-05-07T05:03:48;14.70;99.90
15713;DHT22;7957;51.608;6.916;2023-05-07T05:06:17;14.80;99.90
15713;DHT22;7957;51.608;6.916;2023-05-07T05:08:44;14.80;99.90
15713;DHT22;7957;51.608;6.916;2023-05-07T05:11:11;14.80;99.90
15713;DHT22;7957;51.608;6.916;2023-05-07T05:13:37;14.70;99.90
15713;DHT22;7957;51.608;6.916;2023-05-07T05:16:05;14.70;99.90
15713;DHT22;7957;51.608;6.916;2023-05-07T05:18:33;14.70;99.90
15713;DHT22;7957;51.608;6.916;2023-05-07T05:21:00;14.70;99.90
15713;DHT22;7957;51.608;6.916;2023-05-07T05:23:28;14.70;99.90
15713;DHT22;7957;51.608;6.916;2023-05-07T05:25:55;14.70;99.90
15713;DHT22;7957;51.608;6.916;2023-05-07T05:28:23;14.70;99.90
15713;DHT22;7957;51.608;6.916;2023-05-07T05:30:50;14.70;99.90
15713;DHT22;7957;51.608;6.916;2023-05-07T05:33:17;14.70;99.90
15713;DHT22;7957;51.608;6.916;2023-05-07T05:35:44;14.70;99.90
15713;DHT22;7957;51.608;6.916;2023-05-07T05:38:11;14.70;99.90
15713;DHT22;7957;51.608;6.916;2023-05-07T05:40:39;14.70;99.90
15713;DHT22;7957;51.608;6.916;2023-05-07T05:43:06;14.80;99.90
15713;DHT22;7957;51.608;6.916;2023-05-07T05:45:33;14.80;99.90
15713;DHT22;7957;51.608;6.916;2023-05-07T05:48:00;14.80;99.90
15713;DHT22;7957;51.608;6.916;2023-05-07T05:50:27;14.80;99.90
15713;DHT22;7957;51.608;6.916;2023-05-07T05:52:54;14.80;99.90
15713;DHT22;7957;51.608;6.916;2023-05-07T05:55:22;14.90;99.90
15713;DHT22;7957;51.608;6.916;2023-05-07T05:57:50;14.90;99.90
15713;DHT22;7957;51.608;6.916;2023-05-07T06:00:17;14.90;99.90
15713;DHT22;7957;51.608;6.916;2023-05-07T06:02:44;15.00;99.90
15713;DHT22;7957;51.608;6.916;2023-05-07T06:05:11;15.00;99.90
15713;DHT22;7957;51.608;6.916;2023-05-07T06:07:38;15.00;99.90
15713;DHT22;7957;51.608;6.916;2023-05-07T06:10:06;15.00;99.90
15713;DHT22;7957;51.608;6.916;2023-05-07T06:12:33;15.10;99.90
15713;DHT22;7957;51.608;6.916;2023-05-07T06:15:01;15.10;99.90
15713;DHT22;7957;51.608;6.916;2023-05-07T06:17:28;15.10;99.90
15713;DHT22;7957;51.608;6.916;2023-05-07T06:19:55;15.20;99.90
15713;DHT22;7957;51.608;6.916;2023-05-07T06:22:23;15.20;99.90
15713;DHT22;7957;51.608;6.916;2023-05-07T06:24:50;15.20;99.90
15713;DHT22;7957;51.608;6.916;2023-05-07T06:27:17;15.30;99.90
15713;DHT22;7957;51.608;6.916;2023-05-07T06:29:43;15.30;99.90
15713;DHT22;7957;51.608;6.916;2023-05-07T06:32:13;15.30;99.90
15713;DHT22;7957;51.608;6.916;2023-05-07T06:34:40;15.30;99.90
15713;DHT22;7957;51.608;6.916;2023-05-07T06:37:07;15.40;99.90
15713;DHT22;7957;51.608;6.916;2023-05-07T06:39:34;15.40;99.90
15713;DHT22;7957;51.608;6.916;2023-05-07T06:42:01;15.50;99.90
15713;DHT22;7957;51.608;6.916;2023-05-07T06:44:30;15.50;99.90
15713;DHT22;7957;51.608;6.916;2023-05-07T06:46:56;15.50;99.90
15713;DHT22;7957;51.608;6.916;2023-05-07T06:49:25;15.50;99.90
15713;DHT22;7957;51.608;6.916;2023-05-07T06:51:52;15.60;99.90
15713;DHT22;7957;51.608;6.916;2023-05-07T06:54:18;15.60;99.90
15713;DHT22;7957;51.608;6.916;2023-05-07T06:56:45;15.60;99.90
15713;DHT22;7957;51.608;6.916;2023-05-07T06:59:12;15.70;99.90
15713;DHT22;7957;51.608;6.916;2023-05-07T07:01:39;15.70;99.90
15713;DHT22;7957;51.608;6.916;2023-05-07T07:04:06;15.70;99.90
15713;DHT22;7957;51.608;6.916;2023-05-07T07:06:34;15.80;99.90
15713;DHT22;7957;51.608;6.916;2023-05-07T07:09:01;15.80;99.90
15713;DHT22;7957;51.608;6.916;2023-05-07T07:11:28;15.80;99.90
15713;DHT22;7957;51.608;6.916;2023-05-07T07:13:55;15.90;99.90
15713;DHT22;7957;51.608;6.916;2023-05-07T07:16:22;15.90;99.90
15713;DHT22;7957;51.608;6.916;2023-05-07T07:18:49;15.90;99.90
15713;DHT22;7957;51.608;6.916;2023-05-07T07:21:16;16.00;99.90
15713;DHT22;7957;51.608;6.916;2023-05-07T07:23:45;16.00;99.90
15713;DHT22;7957;51.608;6.916;2023-05-07T07:26:12;16.10;99.90
15713;DHT22;7957;51.608;6.916;2023-05-07T07:28:45;16.10;99.90
15713;DHT22;7957;51.608;6.916;2023-05-07T07:31:12;16.10;99.90
15713;DHT22;7957;51.608;6.916;2023-05-07T07:33:40;16.20;99.90
15713;DHT22;7957;51.608;6.916;2023-05-07T07:36:11;16.20;99.90
15713;DHT22;7957;51.608;6.916;2023-05-07T07:38:38;16.30;99.90
15713;DHT22;7957;51.608;6.916;2023-05-07T07:41:08;16.40;99.90
15713;DHT22;7957;51.608;6.916;2023-05-07T07:43:35;16.50;99.90
15713;DHT22;7957;51.608;6.916;2023-05-07T07:46:02;16.60;99.90
15713;DHT22;7957;51.608;6.916;2023-05-07T07:48:30;16.70;99.90
15713;DHT22;7957;51.608;6.916;2023-05-07T07:50:57;16.70;99.90
15713;DHT22;7957;51.608;6.916;2023-05-07T07:53:23;16.80;99.90
15713;DHT22;7957;51.608;6.916;2023-05-07T07:55:50;16.90;99.90
15713;DHT22;7957;51.608;6.916;2023-05-07T07:58:19;16.90;99.90
15713;DHT22;7957;51.608;6.916;2023-05-07T08:00:47;17.00;99.90
15713;DHT22;7957;51.608;6.916;2023-05-07T08:03:14;17.10;99.90
15713;DHT22;7957;51.608;6.916;2023-05-07T08:05:42;17.20;99.90
15713;DHT22;7957;51.608;6.916;2023-05-07T08:08:09;17.30;99.90
15713;DHT22;7957;51.608;6.916;2023-05-07T08:10:39;17.30;99.90
15713;DHT22;7957;51.608;6.916;2023-05-07T08:13:06;17.30;99.90
15713;DHT22;7957;51.608;6.916;2023-05-07T08:15:35;17.40;99.90
15713;DHT22;7957;51.608;6.916;2023-05-07T08:18:02;17.40;99.90
15713;DHT22;7957;51.608;6.916;2023-05-07T08:20:29;17.40;99.90
15713;DHT22;7957;51.608;6.916;2023-05-07T08:22:56;17.50;99.90
15713;DHT22;7957;51.608;6.916;2023-05-07T08:25:23;17.60;99.90
15713;DHT22;7957;51.608;6.916;2023-05-07T08:27:50;17.60;99.90
15713;DHT22;7957;51.608;6.916;2023-05-07T08:30:18;17.70;99.90
15713;DHT22;7957;51.608;6.916;2023-05-07T08:32:47;17.80;99.90
15713;DHT22;7957;51.608;6.916;2023-05-07T08:35:14;17.90;99.90
15713;DHT22;7957;51.608;6.916;2023-05-07T08:37:40;18.00;99.90
15713;DHT22;7957;51.608;6.916;2023-05-07T08:40:08;18.10;99.90
15713;DHT22;7957;51.608;6.916;2023-05-07T08:42:36;18.10;99.90
15713;DHT22;7957;51.608;6.916;2023-05-07T08:45:04;18.10;99.90
15713;DHT22;7957;51.608;6.916;2023-05-07T08:47:42;18.10;99.90
15713;DHT22;7957;51.608;6.916;2023-05-07T08:50:12;18.10;99.90
15713;DHT22;7957;51.608;6.916;2023-05-07T08:52:39;18.10;99.90
15713;DHT22;7957;51.608;6.916;2023-05-07T08:55:07;18.20;99.90
15713;DHT22;7957;51.608;6.916;2023-05-07T08:57:35;18.30;99.90
15713;DHT22;7957;51.608;6.916;2023-05-07T09:00:05;18.40;99.90
15713;DHT22;7957;51.608;6.916;2023-05-07T09:02:33;18.50;99.90
15713;DHT22;7957;51.608;6.916;2023-05-07T09:05:00;18.60;99.90
15713;DHT22;7957;51.608;6.916;2023-05-07T09:07:28;18.60;99.90
15713;DHT22;7957;51.608;6.916;2023-05-07T09:09:56;18.60;99.90
15713;DHT22;7957;51.608;6.916;2023-05-07T09:12:23;18.60;99.90
15713;DHT22;7957;51.608;6.916;2023-05-07T09:14:50;18.60;99.90
15713;DHT22;7957;51.608;6.916;2023-05-07T09:17:18;18.60;99.90
15713;DHT22;7957;51.608;6.916;2023-05-07T09:19:45;18.70;99.90
15713;DHT22;7957;51.608;6.916;2023-05-07T09:22:13;18.80;99.90
15713;DHT22;7957;51.608;6.916;2023-05-07T09:24:47;18.90;99.90
15713;DHT22;7957;51.608;6.916;2023-05-07T09:27:14;18.90;99.90
15713;DHT22;7957;51.608;6.916;2023-05-07T09:29:41;19.00;99.90
15713;DHT22;7957;51.608;6.916;2023-05-07T09:32:08;19.00;99.90
15713;DHT22;7957;51.608;6.916;2023-05-07T09:34:35;19.10;99.90
15713;DHT22;7957;51.608;6.916;2023-05-07T09:37:03;19.20;99.90
15713;DHT22;7957;51.608;6.916;2023-05-07T09:39:40;19.30;99.90
15713;DHT22;7957;51.608;6.916;2023-05-07T09:42:07;19.30;99.90
15713;DHT22;7957;51.608;6.916;2023-05-07T09:44:34;19.50;99.90
15713;DHT22;7957;51.608;6.916;2023-05-07T09:47:05;19.60;1.00
15713;DHT22;7957;51.608;6.916;2023-05-07T09:49:34;19.70;1.00
15713;DHT22;7957;51.608;6.916;2023-05-07T09:52:03;19.70;1.00
15713;DHT22;7957;51.608;6.916;2023-05-07T09:54:35;19.90;99.90
15713;DHT22;7957;51.608;6.916;2023-05-07T09:57:05;20.00;1.00
15713;DHT22;7957;51.608;6.916;2023-05-07T09:59:33;20.20;1.00
15713;DHT22;7957;51.608;6.916;2023-05-07T10:02:01;20.20;99.90
15713;DHT22;7957;51.608;6.916;2023-05-07T10:04:29;20.30;99.90
15713;DHT22;7957;51.608;6.916;2023-05-07T10:06:57;20.40;1.00
15713;DHT22;7957;51.608;6.916;2023-05-07T10:09:26;20.50;1.00
15713;DHT22;7957;51.608;6.916;2023-05-07T10:11:54;20.60;1.00
15713;DHT22;7957;51.608;6.916;2023-05-07T10:14:22;20.60;99.90
15713;DHT22;7957;51.608;6.916;2023-05-07T10:16:49;20.80;99.90
15713;DHT22;7957;51.608;6.916;2023-05-07T10:19:18;20.90;99.90
15713;DHT22;7957;51.608;6.916;2023-05-07T10:21:54;21.00;75.30
15713;DHT22;7957;51.608;6.916;2023-05-07T10:24:26;21.20;1.00
15713;DHT22;7957;51.608;6.916;2023-05-07T10:26:55;21.40;1.00
15713;DHT22;7957;51.608;6.916;2023-05-07T10:29:32;21.50;1.00
15713;DHT22;7957;51.608;6.916;2023-05-07T10:32:10;21.60;1.00
15713;DHT22;7957;51.608;6.916;2023-05-07T10:34:41;21.80;1.00
15713;DHT22;7957;51.608;6.916;2023-05-07T10:37:09;21.90;99.90
15713;DHT22;7957;51.608;6.916;2023-05-07T10:39:37;22.10;99.90
15713;DHT22;7957;51.608;6.916;2023-05-07T10:42:11;22.20;99.90
15713;DHT22;7957;51.608;6.916;2023-05-07T10:44:39;22.30;32.10
15713;DHT22;7957;51.608;6.916;2023-05-07T10:47:07;22.40;1.00
15713;DHT22;7957;51.608;6.916;2023-05-07T10:49:36;22.60;1.00
15713;DHT22;7957;51.608;6.916;2023-05-07T10:52:14;22.80;1.00
15713;DHT22;7957;51.608;6.916;2023-05-07T10:54:42;23.00;1.00
15713;DHT22;7957;51.608;6.916;2023-05-07T10:57:34;23.10;1.00
15713;DHT22;7957;51.608;6.916;2023-05-07T11:00:06;23.20;1.00
15713;DHT22;7957;51.608;6.916;2023-05-07T11:03:05;23.40;99.90
15713;DHT22;7957;51.608;6.916;2023-05-07T11:05:33;23.70;99.90
15713;DHT22;7957;51.608;6.916;2023-05-07T11:08:01;23.80;99.90
15713;DHT22;7957;51.608;6.916;2023-05-07T11:10:49;24.00;99.90
15713;DHT22;7957;51.608;6.916;2023-05-07T11:13:17;24.10;99.90
15713;DHT22;7957;51.608;6.916;2023-05-07T11:15:47;24.20;25.40
15713;DHT22;7957;51.608;6.916;2023-05-07T11:18:15;24.40;1.00
15713;DHT22;7957;51.608;6.916;2023-05-07T11:21:00;24.50;1.00
15713;DHT22;7957;51.608;6.916;2023-05-07T11:26:47;24.50;1.00
15713;DHT22;7957;51.608;6.916;2023-05-07T11:29:16;24.60;1.00
15713;DHT22;7957;51.608;6.916;2023-05-07T11:31:48;24.80;1.00
15713;DHT22;7957;51.608;6.916;2023-05-07T11:34:20;25.00;1.00
15713;DHT22;7957;51.608;6.916;2023-05-07T11:36:47;25.00;99.90
15713;DHT22;7957;51.608;6.916;2023-05-07T11:39:26;25.00;99.90
15713;DHT22;7957;51.608;6.916;2023-05-07T11:41:53;25.00;99.90
15713;DHT22;7957;51.608;6.916;2023-05-07T11:44:20;25.10;99.90
15713;DHT22;7957;51.608;6.916;2023-05-07T11:46:48;25.20;99.90
15713;DHT22;7957;51.608;6.916;2023-05-07T11:49:16;25.30;99.90
15713;DHT22;7957;51.608;6.916;2023-05-07T11:51:43;25.50;99.90
15713;DHT22;7957;51.608;6.916;2023-05-07T11:54:15;25.60;99.90
15713;DHT22;7957;51.608;6.916;2023-05-07T11:56:44;25.60;42.30
15713;DHT22;7957;51.608;6.916;2023-05-07T11:59:17;25.50;1.00
15713;DHT22;7957;51.608;6.916;2023-05-07T12:01:45;25.50;1.00
15713;DHT22;7957;51.608;6.916;2023-05-07T12:04:18;25.50;1.00
15713;DHT22;7957;51.608;6.916;2023-05-07T12:06:45;25.50;1.00
15713;DHT22;7957;51.608;6.916;2023-05-07T12:09:12;25.60;1.00
15713;DHT22;7957;51.608;6.916;2023-05-07T12:11:40;25.70;1.00
15713;DHT22;7957;51.608;6.916;2023-05-07T12:14:07;25.80;1.00
15713;DHT22;7957;51.608;6.916;2023-05-07T12:16:34;25.80;1.00
15713;DHT22;7957;51.608;6.916;2023-05-07T12:19:01;25.80;1.00
15713;DHT22;7957;51.608;6.916;2023-05-07T12:21:31;25.80;1.00
15713;DHT22;7957;51.608;6.916;2023-05-07T12:23:58;25.80;1.00
15713;DHT22;7957;51.608;6.916;2023-05-07T12:26:25;25.90;1.00
15713;DHT22;7957;51.608;6.916;2023-05-07T12:28:52;25.80;1.00
15713;DHT22;7957;51.608;6.916;2023-05-07T12:31:19;25.80;1.00
15713;DHT22;7957;51.608;6.916;2023-05-07T12:33:46;25.80;99.90
15713;DHT22;7957;51.608;6.916;2023-05-07T12:36:13;25.80;99.90
15713;DHT22;7957;51.608;6.916;2023-05-07T12:38:41;25.70;99.90
15713;DHT22;7957;51.608;6.916;2023-05-07T12:41:10;25.70;99.90
15713;DHT22;7957;51.608;6.916;2023-05-07T12:43:37;25.60;99.90
15713;DHT22;7957;51.608;6.916;2023-05-07T12:46:06;25.60;99.90
15713;DHT22;7957;51.608;6.916;2023-05-07T12:48:36;25.40;99.90
15713;DHT22;7957;51.608;6.916;2023-05-07T12:51:03;25.40;99.90
15713;DHT22;7957;51.608;6.916;2023-05-07T12:53:31;25.30;99.90
15713;DHT22;7957;51.608;6.916;2023-05-07T12:56:00;25.10;99.90
15713;DHT22;7957;51.608;6.916;2023-05-07T12:58:28;25.00;99.90
15713;DHT22;7957;51.608;6.916;2023-05-07T13:00:57;24.90;99.90
15713;DHT22;7957;51.608;6.916;2023-05-07T13:03:26;24.80;99.90
15713;DHT22;7957;51.608;6.916;2023-05-07T13:05:54;24.70;99.90
15713;DHT22;7957;51.608;6.916;2023-05-07T13:08:29;24.50;99.90
15713;DHT22;7957;51.608;6.916;2023-05-07T13:11:01;24.50;99.90
15713;DHT22;7957;51.608;6.916;2023-05-07T13:13:29;24.40;99.90
15713;DHT22;7957;51.608;6.916;2023-05-07T13:15:56;24.40;99.90
15713;DHT22;7957;51.608;6.916;2023-05-07T13:18:24;24.30;81.40
15713;DHT22;7957;51.608;6.916;2023-05-07T13:20:52;24.20;53.60
15713;DHT22;7957;51.608;6.916;2023-05-07T13:23:19;24.10;40.00
15713;DHT22;7957;51.608;6.916;2023-05-07T13:25:46;24.00;25.80
15713;DHT22;7957;51.608;6.916;2023-05-07T13:28:14;23.90;26.60
15713;DHT22;7957;51.608;6.916;2023-05-07T13:30:42;23.90;13.50
15713;DHT22;7957;51.608;6.916;2023-05-07T13:33:09;23.70;10.70
15713;DHT22;7957;51.608;6.916;2023-05-07T13:35:36;23.70;13.20
15713;DHT22;7957;51.608;6.916;2023-05-07T13:38:03;23.60;10.40
15713;DHT22;7957;51.608;6.916;2023-05-07T13:40:30;23.60;4.90
15713;DHT22;7957;51.608;6.916;2023-05-07T13:42:57;23.50;4.70
15713;DHT22;7957;51.608;6.916;2023-05-07T13:45:29;23.40;1.00
15713;DHT22;7957;51.608;6.916;2023-05-07T13:47:56;23.30;2.80
15713;DHT22;7957;51.608;6.916;2023-05-07T13:50:23;23.20;1.00
15713;DHT22;7957;51.608;6.916;2023-05-07T13:52:52;23.20;1.00
15713;DHT22;7957;51.608;6.916;2023-05-07T13:55:19;23.10;1.00
15713;DHT22;7957;51.608;6.916;2023-05-07T13:57:47;23.00;1.00
15713;DHT22;7957;51.608;6.916;2023-05-07T14:00:15;22.90;4.20
15713;DHT22;7957;51.608;6.916;2023-05-07T14:02:43;22.90;9.70
15713;DHT22;7957;51.608;6.916;2023-05-07T14:05:10;22.80;15.00
15713;DHT22;7957;51.608;6.916;2023-05-07T14:07:38;22.80;17.90
15713;DHT22;7957;51.608;6.916;2023-05-07T14:10:06;22.70;21.10
15713;DHT22;7957;51.608;6.916;2023-05-07T14:12:33;22.60;25.00
15713;DHT22;7957;51.608;6.916;2023-05-07T14:15:00;22.60;30.50
15713;DHT22;7957;51.608;6.916;2023-05-07T14:17:27;22.50;38.10
15713;DHT22;7957;51.608;6.916;2023-05-07T14:19:58;22.40;45.70
15713;DHT22;7957;51.608;6.916;2023-05-07T14:22:27;22.40;55.80
15713;DHT22;7957;51.608;6.916;2023-05-07T14:24:54;22.30;59.40
15713;DHT22;7957;51.608;6.916;2023-05-07T14:27:21;22.20;67.50
15713;DHT22;7957;51.608;6.916;2023-05-07T14:29:49;22.10;80.90
15713;DHT22;7957;51.608;6.916;2023-05-07T14:32:16;22.10;88.60
15713;DHT22;7957;51.608;6.916;2023-05-07T14:34:44;22.10;92.80
15713;DHT22;7957;51.608;6.916;2023-05-07T14:37:13;22.00;99.90
15713;DHT22;7957;51.608;6.916;2023-05-07T14:39:40;21.90;99.90
15713;DHT22;7957;51.608;6.916;2023-05-07T14:42:07;21.80;99.90
15713;DHT22;7957;51.608;6.916;2023-05-07T14:44:34;21.80;99.90
15713;DHT22;7957;51.608;6.916;2023-05-07T14:47:01;21.70;99.90
15713;DHT22;7957;51.608;6.916;2023-05-07T14:49:28;21.60;99.90
15713;DHT22;7957;51.608;6.916;2023-05-07T14:51:57;21.60;99.90
15713;DHT22;7957;51.608;6.916;2023-05-07T14:54:25;21.50;99.90
15713;DHT22;7957;51.608;6.916;2023-05-07T14:56:52;21.50;99.90
15713;DHT22;7957;51.608;6.916;2023-05-07T14:59:20;21.40;99.90
15713;DHT22;7957;51.608;6.916;2023-05-07T15:01:47;21.40;99.90
15713;DHT22;7957;51.608;6.916;2023-05-07T15:04:14;21.30;99.90
15713;DHT22;7957;51.608;6.916;2023-05-07T15:06:41;21.30;99.90
15713;DHT22;7957;51.608;6.916;2023-05-07T15:09:08;21.20;99.90
15713;DHT22;7957;51.608;6.916;2023-05-07T15:11:36;21.10;99.90
15713;DHT22;7957;51.608;6.916;2023-05-07T15:14:04;21.10;99.90
15713;DHT22;7957;51.608;6.916;2023-05-07T15:16:31;21.10;99.90
15713;DHT22;7957;51.608;6.916;2023-05-07T15:18:58;21.00;99.90
15713;DHT22;7957;51.608;6.916;2023-05-07T15:21:25;21.00;99.90
15713;DHT22;7957;51.608;6.916;2023-05-07T15:23:52;21.00;99.90
15713;DHT22;7957;51.608;6.916;2023-05-07T15:26:19;20.90;99.90
15713;DHT22;7957;51.608;6.916;2023-05-07T15:28:47;20.90;99.90
15713;DHT22;7957;51.608;6.916;2023-05-07T15:31:15;20.90;99.90
15713;DHT22;7957;51.608;6.916;2023-05-07T15:33:42;20.90;99.90
15713;DHT22;7957;51.608;6.916;2023-05-07T15:36:09;20.90;99.90
15713;DHT22;7957;51.608;6.916;2023-05-07T15:38:36;20.90;99.90
15713;DHT22;7957;51.608;6.916;2023-05-07T15:41:03;20.90;99.90
15713;DHT22;7957;51.608;6.916;2023-05-07T15:43:30;20.90;99.90
15713;DHT22;7957;51.608;6.916;2023-05-07T15:45:58;20.90;99.90
15713;DHT22;7957;51.608;6.916;2023-05-07T15:48:25;20.90;99.90
15713;DHT22;7957;51.608;6.916;2023-05-07T15:50:52;20.90;99.90
15713;DHT22;7957;51.608;6.916;2023-05-07T15:53:19;20.90;99.90
15713;DHT22;7957;51.608;6.916;2023-05-07T15:55:46;20.90;1.00
15713;DHT22;7957;51.608;6.916;2023-05-07T15:58:13;20.90;1.00